Time;durP1;ratioP1;P1;durP2;ratioP2;P2;SDS_P1;SDS_P2;PMS_P1;PMS_P2;Temp;Humidity;BMP_temperature;BMP_pressure;BME280_temperature;BME280_humidity;BME280_pressure;Samples;Min_cycle;Max_cycle;Signal;HPM_P1;HPM_P2
2021/01/17 00:01:41;0.00;0.00;0.62;0.00;0.00;0.62;2.40;1.67;;;19.40;28.30;;;;;;2253229;61;20433;-62
2021/01/17 00:04:26;0.00;0.00;0.62;0.00;0.00;0.62;2.33;1.73;;;19.40;27.70;;;;;;2253479;61;20372;-62
2021/01/17 00:07:11;0.00;0.00;0.62;0.00;0.00;0.62;1.60;1.33;;;19.40;27.70;;;;;;2253719;61;20416;-62
2021/01/17 00:09:55;0.00;0.00;0.62;0.00;0.00;0.62;1.53;1.23;;;19.40;27.70;;;;;;2252872;61;20368;-64
2021/01/17 00:12:41;0.00;0.00;0.62;0.00;0.00;0.62;1.67;1.20;;;19.40;27.70;;;;;;2253842;61;20663;-64
2021/01/17 00:15:26;0.00;0.00;0.62;0.00;0.00;0.62;1.93;1.50;;;19.40;27.70;;;;;;2253966;61;20827;-63
2021/01/17 00:18:11;0.00;0.00;0.62;0.00;0.00;0.62;1.40;1.20;;;19.40;27.70;;;;;;2253224;61;20368;-61
2021/01/17 00:20:56;0.00;0.00;0.62;0.00;0.00;0.62;1.50;1.20;;;19.40;27.80;;;;;;2254021;61;20638;-61
2021/01/17 00:23:40;0.00;0.00;0.62;0.00;0.00;0.62;1.63;1.30;;;19.40;27.80;;;;;;2253164;61;20500;-61
2021/01/17 00:26:24;0.00;0.00;0.62;0.00;0.00;0.62;1.90;1.37;;;19.40;27.80;;;;;;2253749;61;20415;-63
2021/01/17 00:29:10;0.00;0.00;0.62;0.00;0.00;0.62;1.70;1.13;;;19.40;27.80;;;;;;2253245;61;20418;-63
2021/01/17 00:31:54;0.00;0.00;0.62;0.00;0.00;0.62;1.83;1.30;;;19.40;27.80;;;;;;2253296;61;20748;-63
2021/01/17 00:34:40;0.00;0.00;0.62;0.00;0.00;0.62;1.57;1.27;;;19.40;27.80;;;;;;2254047;61;20789;-65
2021/01/17 00:37:25;0.00;0.00;0.62;0.00;0.00;0.62;1.70;1.17;;;19.40;27.80;;;;;;2253486;61;20749;-63
2021/01/17 00:40:11;0.00;0.00;0.62;0.00;0.00;0.62;1.60;1.37;;;19.50;27.90;;;;;;2253327;61;20433;-63
2021/01/17 00:42:56;0.00;0.00;0.62;0.00;0.00;0.62;2.47;1.13;;;19.40;27.80;;;;;;2256112;61;20441;-64
2021/01/17 00:45:42;0.00;0.00;0.62;0.00;0.00;0.62;1.63;1.27;;;19.50;27.90;;;;;;2253096;61;20453;-63
2021/01/17 00:48:26;0.00;0.00;0.62;0.00;0.00;0.62;1.50;1.30;;;19.50;27.90;;;;;;2253696;61;20582;-65
2021/01/17 00:51:11;0.00;0.00;0.62;0.00;0.00;0.62;1.60;1.30;;;19.50;27.90;;;;;;2253177;61;20392;-62
2021/01/17 00:53:56;0.00;0.00;0.62;0.00;0.00;0.62;2.50;1.00;;;19.50;27.90;;;;;;2255495;61;20356;-64
2021/01/17 00:56:41;0.00;0.00;0.62;0.00;0.00;0.62;1.70;1.50;;;19.50;27.90;;;;;;2255827;61;20384;-63
2021/01/17 00:59:27;0.00;0.00;0.62;0.00;0.00;0.62;1.80;1.23;;;19.50;27.80;;;;;;2253029;61;20360;-63
2021/01/17 01:02:12;0.00;0.00;0.62;0.00;0.00;0.62;2.33;1.70;;;19.40;27.80;;;;;;2252966;61;20421;-64
2021/01/17 01:04:57;0.00;0.00;0.62;0.00;0.00;0.62;1.80;1.40;;;19.50;27.90;;;;;;2253471;61;20359;-62
2021/01/17 01:07:44;0.00;0.00;0.62;0.00;0.00;0.62;1.60;1.20;;;19.50;27.80;;;;;;2253250;61;20396;-62
2021/01/17 01:10:29;0.00;0.00;0.62;0.00;0.00;0.62;1.80;1.30;;;19.50;27.80;;;;;;2253476;61;20368;-64
2021/01/17 01:13:14;0.00;0.00;0.62;0.00;0.00;0.62;1.87;1.20;;;19.50;27.80;;;;;;2253637;61;20368;-63
2021/01/17 01:15:58;0.00;0.00;0.62;0.00;0.00;0.62;3.53;1.47;;;19.50;27.80;;;;;;2253206;61;20383;-62
2021/01/17 01:18:44;0.00;0.00;0.62;0.00;0.00;0.62;1.53;1.10;;;19.50;27.80;;;;;;2253683;61;20736;-61
2021/01/17 01:21:32;0.00;0.00;0.62;0.00;0.00;0.62;2.00;1.37;;;19.50;27.80;;;;;;2253738;61;20364;-63
2021/01/17 01:24:18;0.00;0.00;0.62;0.00;0.00;0.62;1.97;1.33;;;19.50;27.80;;;;;;2252586;61;20767;-62
2021/01/17 01:27:04;0.00;0.00;0.62;0.00;0.00;0.62;1.70;1.27;;;19.50;27.80;;;;;;2253450;61;20388;-61
2021/01/17 01:29:49;0.00;0.00;0.62;0.00;0.00;0.62;1.90;1.63;;;19.50;27.90;;;;;;2255789;61;20415;-62
2021/01/17 01:32:34;0.00;0.00;0.62;0.00;0.00;0.62;1.73;1.40;;;19.50;27.90;;;;;;2253700;61;20363;-61
2021/01/17 01:35:20;0.00;0.00;0.62;0.00;0.00;0.62;1.50;1.17;;;19.50;28.40;;;;;;2253559;61;20609;-62
2021/01/17 01:38:05;0.00;0.00;0.62;0.00;0.00;0.62;1.50;1.20;;;19.50;27.90;;;;;;2253234;61;20376;-61
2021/01/17 01:40:54;0.00;0.00;0.62;0.00;0.00;0.62;1.40;1.03;;;19.50;27.90;;;;;;2253578;61;20407;-63
2021/01/17 01:43:40;0.00;0.00;0.62;0.00;0.00;0.62;1.50;1.10;;;19.50;27.90;;;;;;2253789;61;20368;-62
2021/01/17 01:46:27;0.00;0.00;0.62;0.00;0.00;0.62;1.77;1.13;;;19.50;27.80;;;;;;2252831;61;20412;-61
2021/01/17 01:49:13;0.00;0.00;0.62;0.00;0.00;0.62;1.33;1.00;;;19.50;27.80;;;;;;2253613;61;20356;-62
2021/01/17 01:52:01;0.00;0.00;0.62;0.00;0.00;0.62;3.77;1.20;;;19.50;27.80;;;;;;2253519;61;20364;-60
2021/01/17 01:54:47;0.00;0.00;0.62;0.00;0.00;0.62;2.87;1.83;;;19.50;27.90;;;;;;2255817;61;20365;-61
2021/01/17 01:57:32;0.00;0.00;0.62;0.00;0.00;0.62;5.40;2.03;;;19.50;28.40;;;;;;2253658;61;20384;-62
2021/01/17 02:00:18;0.00;0.00;0.62;0.00;0.00;0.62;2.10;1.87;;;19.50;27.80;;;;;;2253100;61;20361;-61
2021/01/17 02:03:05;0.00;0.00;0.62;0.00;0.00;0.62;2.20;1.77;;;19.40;27.60;;;;;;2253180;61;20740;-60
2021/01/17 02:05:50;0.00;0.00;0.62;0.00;0.00;0.62;4.97;1.70;;;19.40;27.50;;;;;;2253652;61;20629;-62
2021/01/17 02:09:02;0.00;0.00;0.62;0.00;0.00;0.62;2.20;1.60;;;19.40;27.40;;;;;;2252750;61;20357;-62
2021/01/17 02:12:02;0.00;0.00;0.62;0.00;0.00;0.62;2.20;1.80;;;19.40;27.40;;;;;;2253559;61;20368;-63
2021/01/17 02:14:56;0.00;0.00;0.62;0.00;0.00;0.62;2.47;1.90;;;19.40;27.30;;;;;;2253138;61;20364;-64
2021/01/17 02:17:42;0.00;0.00;0.62;0.00;0.00;0.62;3.50;2.67;;;19.40;27.20;;;;;;2253546;61;20387;-62
2021/01/17 02:20:29;0.00;0.00;0.62;0.00;0.00;0.62;3.40;2.53;;;19.30;27.00;;;;;;2253699;61;20411;-62
2021/01/17 02:23:21;0.00;0.00;0.62;0.00;0.00;0.62;3.00;2.70;;;19.30;26.90;;;;;;2252882;61;20368;-62
2021/01/17 02:26:08;0.00;0.00;0.62;0.00;0.00;0.62;3.50;3.00;;;19.30;26.90;;;;;;2253316;61;20611;-64
2021/01/17 02:28:54;0.00;0.00;0.62;0.00;0.00;0.62;3.13;2.83;;;19.20;26.80;;;;;;2253404;61;20365;-62
2021/01/17 02:31:42;0.00;0.00;0.62;0.00;0.00;0.62;3.30;2.90;;;19.20;26.70;;;;;;2253143;61;20707;-64
2021/01/17 02:34:29;0.00;0.00;0.62;0.00;0.00;0.62;3.53;3.10;;;19.10;26.60;;;;;;2253703;61;20438;-62
2021/01/17 02:37:27;0.00;0.00;0.62;0.00;0.00;0.62;3.87;2.80;;;19.10;26.60;;;;;;2253116;61;20376;-62
2021/01/17 02:40:33;0.00;0.00;0.62;0.00;0.00;0.62;3.43;2.90;;;19.10;26.60;;;;;;2253423;61;20384;-62
2021/01/17 02:43:20;0.00;0.00;0.62;0.00;0.00;0.62;4.27;3.00;;;19.00;26.50;;;;;;2253805;61;20615;-62
2021/01/17 02:46:05;0.00;0.00;0.62;0.00;0.00;0.62;2.93;2.60;;;19.00;26.50;;;;;;2252985;61;20783;-62
2021/01/17 02:48:51;0.00;0.00;0.62;0.00;0.00;0.62;3.53;2.90;;;19.00;26.40;;;;;;2253582;61;20364;-62
2021/01/17 02:51:37;0.00;0.00;0.62;0.00;0.00;0.62;2.63;2.43;;;18.90;26.30;;;;;;2252723;61;20452;-65
2021/01/17 02:54:30;0.00;0.00;0.62;0.00;0.00;0.62;3.17;2.87;;;18.90;26.30;;;;;;2253620;61;20363;-62
2021/01/17 02:57:17;0.00;0.00;0.62;0.00;0.00;0.62;2.83;2.63;;;18.80;26.10;;;;;;2253187;61;20769;-62
2021/01/17 03:00:09;0.00;0.00;0.62;0.00;0.00;0.62;3.80;3.13;;;18.80;26.10;;;;;;2252736;61;20387;-62
2021/01/17 03:02:57;0.00;0.00;0.62;0.00;0.00;0.62;3.70;3.30;;;18.80;26.00;;;;;;2253823;61;20435;-62
2021/01/17 03:05:44;0.00;0.00;0.62;0.00;0.00;0.62;3.30;3.00;;;18.70;25.90;;;;;;2253274;61;20384;-62
2021/01/17 03:08:30;0.00;0.00;0.62;0.00;0.00;0.62;3.53;3.13;;;18.70;25.90;;;;;;2253312;61;20400;-61
2021/01/17 03:11:15;0.00;0.00;0.62;0.00;0.00;0.62;3.73;3.20;;;18.70;25.90;;;;;;2253472;61;20445;-63
2021/01/17 03:14:03;0.00;0.00;0.62;0.00;0.00;0.62;3.50;3.20;;;18.60;25.80;;;;;;2253453;61;20411;-63
2021/01/17 03:16:50;0.00;0.00;0.62;0.00;0.00;0.62;3.13;2.83;;;18.60;25.90;;;;;;2253558;61;20485;-62
2021/01/17 03:19:36;0.00;0.00;0.62;0.00;0.00;0.62;3.47;2.90;;;18.60;25.80;;;;;;2253087;61;20364;-63
2021/01/17 03:22:21;0.00;0.00;0.62;0.00;0.00;0.62;3.00;2.70;;;18.50;25.70;;;;;;2252868;61;20364;-63
2021/01/17 03:25:09;0.00;0.00;0.62;0.00;0.00;0.62;3.53;3.23;;;18.50;25.70;;;;;;2255872;61;20380;-65
2021/01/17 03:27:55;0.00;0.00;0.62;0.00;0.00;0.62;3.63;3.30;;;18.50;25.70;;;;;;2253166;61;20787;-62
2021/01/17 03:30:41;0.00;0.00;0.62;0.00;0.00;0.62;3.50;3.20;;;18.40;25.70;;;;;;2253182;61;20810;-62
2021/01/17 03:33:26;0.00;0.00;0.62;0.00;0.00;0.62;3.17;2.87;;;18.50;25.70;;;;;;2253638;61;20410;-62
2021/01/17 03:36:11;0.00;0.00;0.62;0.00;0.00;0.62;3.77;3.47;;;18.40;25.60;;;;;;2252391;61;20411;-62
2021/01/17 03:38:56;0.00;0.00;0.62;0.00;0.00;0.62;2.87;2.60;;;18.40;25.50;;;;;;2254046;61;20356;-64
2021/01/17 03:41:41;0.00;0.00;0.62;0.00;0.00;0.62;3.40;2.83;;;18.30;25.50;;;;;;2253586;61;20403;-62
2021/01/17 03:44:27;0.00;0.00;0.62;0.00;0.00;0.62;4.07;3.67;;;18.30;25.50;;;;;;2255746;61;20580;-62
2021/01/17 03:47:13;0.00;0.00;0.62;0.00;0.00;0.62;4.27;3.83;;;18.30;25.40;;;;;;2254080;61;20387;-62
2021/01/17 03:49:59;0.00;0.00;0.62;0.00;0.00;0.62;2.93;2.63;;;18.30;25.40;;;;;;2254065;61;20447;-62
2021/01/17 03:52:44;0.00;0.00;0.62;0.00;0.00;0.62;4.33;3.50;;;18.30;25.40;;;;;;2253695;61;20364;-62
2021/01/17 03:55:30;0.00;0.00;0.62;0.00;0.00;0.62;3.73;3.30;;;18.20;25.30;;;;;;2253511;61;20384;-61
2021/01/17 03:58:15;0.00;0.00;0.62;0.00;0.00;0.62;3.80;3.27;;;18.20;25.30;;;;;;2253238;61;20379;-62
2021/01/17 04:01:00;0.00;0.00;0.62;0.00;0.00;0.62;3.93;3.40;;;18.20;25.30;;;;;;2253793;61;20403;-62
2021/01/17 04:03:45;0.00;0.00;0.62;0.00;0.00;0.62;3.60;3.30;;;18.20;25.30;;;;;;2253955;61;20360;-62
2021/01/17 04:06:31;0.00;0.00;0.62;0.00;0.00;0.62;3.73;3.13;;;18.20;25.30;;;;;;2253574;61;20415;-64
2021/01/17 04:09:16;0.00;0.00;0.62;0.00;0.00;0.62;3.37;3.07;;;18.10;25.30;;;;;;2254087;61;20371;-61
2021/01/17 04:12:01;0.00;0.00;0.62;0.00;0.00;0.62;3.50;3.20;;;18.10;25.30;;;;;;2254028;61;20680;-64
2021/01/17 04:14:46;0.00;0.00;0.62;0.00;0.00;0.62;4.57;4.13;;;18.10;25.30;;;;;;2253607;61;20377;-63
2021/01/17 04:17:32;0.00;0.00;0.62;0.00;0.00;0.62;4.30;3.87;;;18.10;25.30;;;;;;2253977;61;20365;-62
2021/01/17 04:20:17;0.00;0.00;0.62;0.00;0.00;0.62;3.33;3.00;;;18.00;25.20;;;;;;2253295;61;20344;-63
2021/01/17 04:23:05;0.00;0.00;0.62;0.00;0.00;0.62;3.47;3.17;;;18.00;25.20;;;;;;2253837;61;20368;-62
2021/01/17 04:25:52;0.00;0.00;0.62;0.00;0.00;0.62;4.27;3.87;;;18.00;25.20;;;;;;2253288;61;20399;-62
2021/01/17 04:28:38;0.00;0.00;0.62;0.00;0.00;0.62;3.40;3.10;;;18.00;25.70;;;;;;2253257;61;20360;-62
2021/01/17 04:31:25;0.00;0.00;0.62;0.00;0.00;0.62;4.10;3.70;;;18.00;25.20;;;;;;2253827;61;20392;-62
2021/01/17 04:34:10;0.00;0.00;0.62;0.00;0.00;0.62;4.50;4.10;;;17.90;25.10;;;;;;2254025;61;20361;-61
2021/01/17 04:36:55;0.00;0.00;0.62;0.00;0.00;0.62;4.53;4.07;;;17.90;25.10;;;;;;2253269;61;20525;-62
2021/01/17 04:39:44;0.00;0.00;0.62;0.00;0.00;0.62;5.03;4.00;;;17.90;25.10;;;;;;2253823;61;20383;-63
2021/01/17 04:42:34;0.00;0.00;0.62;0.00;0.00;0.62;3.73;3.43;;;17.90;25.10;;;;;;2252756;61;20372;-62
2021/01/17 04:45:23;0.00;0.00;0.62;0.00;0.00;0.62;5.13;4.13;;;17.80;25.10;;;;;;2253684;61;20399;-61
2021/01/17 04:48:11;0.00;0.00;0.62;0.00;0.00;0.62;4.53;4.13;;;17.80;25.10;;;;;;2253693;61;20384;-62
2021/01/17 04:51:02;0.00;0.00;0.62;0.00;0.00;0.62;3.90;3.50;;;17.80;25.10;;;;;;2253164;61;20434;-62
2021/01/17 04:53:49;0.00;0.00;0.62;0.00;0.00;0.62;4.97;3.60;;;17.80;25.10;;;;;;2254031;61;20368;-61
2021/01/17 04:56:52;0.00;0.00;0.62;0.00;0.00;0.62;4.47;4.07;;;17.80;25.10;;;;;;2253808;61;20375;-61
2021/01/17 04:59:46;0.00;0.00;0.62;0.00;0.00;0.62;6.10;3.90;;;17.70;25.00;;;;;;2253525;61;20372;-63
2021/01/17 05:02:34;0.00;0.00;0.62;0.00;0.00;0.62;4.90;4.40;;;17.70;25.00;;;;;;2253802;61;20355;-61
2021/01/17 05:05:24;0.00;0.00;0.62;0.00;0.00;0.62;4.53;4.07;;;17.70;25.00;;;;;;2253140;61;20383;-61
2021/01/17 05:08:32;0.00;0.00;0.62;0.00;0.00;0.62;4.17;3.37;;;17.60;24.90;;;;;;2253603;61;20609;-62
2021/01/17 05:11:32;0.00;0.00;0.62;0.00;0.00;0.62;4.70;3.80;;;17.60;24.90;;;;;;2253865;61;20380;-61
2021/01/17 05:14:35;0.00;0.00;0.62;0.00;0.00;0.62;4.70;4.20;;;17.60;24.90;;;;;;2253419;61;20356;-63
2021/01/17 05:17:23;0.00;0.00;0.62;0.00;0.00;0.62;5.37;4.33;;;17.60;24.70;;;;;;2253611;61;20352;-61
2021/01/17 05:20:10;0.00;0.00;0.62;0.00;0.00;0.62;6.40;4.73;;;17.50;24.60;;;;;;2253175;61;20756;-63
2021/01/17 05:22:57;0.00;0.00;0.62;0.00;0.00;0.62;4.30;3.83;;;17.60;24.50;;;;;;2253293;61;20367;-62
2021/01/17 05:25:43;0.00;0.00;0.62;0.00;0.00;0.62;5.73;4.47;;;17.50;24.50;;;;;;2253575;61;20772;-62
2021/01/17 05:28:31;0.00;0.00;0.62;0.00;0.00;0.62;4.10;3.73;;;17.50;24.50;;;;;;2252966;61;20392;-61
2021/01/17 05:31:23;0.00;0.00;0.62;0.00;0.00;0.62;4.10;3.70;;;17.50;24.50;;;;;;2253539;61;20368;-62
2021/01/17 05:34:07;0.00;0.00;0.62;0.00;0.00;0.62;5.67;4.30;;;17.50;24.50;;;;;;2253349;61;20748;-62
2021/01/17 05:37:12;0.00;0.00;0.62;0.00;0.00;0.62;4.93;3.90;;;17.40;24.50;;;;;;2253541;61;20647;-61
2021/01/17 05:40:01;0.00;0.00;0.62;0.00;0.00;0.62;4.27;3.87;;;17.40;24.50;;;;;;2253495;61;20423;-61
2021/01/17 05:42:49;0.00;0.00;0.62;0.00;0.00;0.62;4.80;4.30;;;17.40;24.50;;;;;;2253133;61;20411;-63
2021/01/17 05:45:34;0.00;0.00;0.62;0.00;0.00;0.62;4.30;3.90;;;17.30;24.40;;;;;;2253171;61;20449;-63
2021/01/17 05:48:20;0.00;0.00;0.62;0.00;0.00;0.62;4.07;3.67;;;17.30;24.50;;;;;;2253879;61;20392;-62
2021/01/17 05:51:05;0.00;0.00;0.62;0.00;0.00;0.62;4.73;4.20;;;17.30;24.40;;;;;;2253278;61;20506;-62
2021/01/17 05:53:50;0.00;0.00;0.62;0.00;0.00;0.62;3.83;3.40;;;17.30;24.50;;;;;;2253562;61;20364;-62
2021/01/17 05:56:37;0.00;0.00;0.62;0.00;0.00;0.62;4.10;3.70;;;17.30;24.50;;;;;;2253276;61;20419;-62
2021/01/17 05:59:38;0.00;0.00;0.62;0.00;0.00;0.62;4.10;3.70;;;17.30;24.50;;;;;;2253318;61;20452;-63
2021/01/17 06:02:25;0.00;0.00;0.62;0.00;0.00;0.62;4.40;3.87;;;17.30;24.50;;;;;;2253676;61;20360;-63
2021/01/17 06:05:12;0.00;0.00;0.62;0.00;0.00;0.62;4.90;4.10;;;17.20;24.40;;;;;;2252868;61;20388;-62
2021/01/17 06:07:58;0.00;0.00;0.62;0.00;0.00;0.62;4.30;3.90;;;17.20;24.40;;;;;;2253597;61;20407;-63
2021/01/17 06:10:45;0.00;0.00;0.62;0.00;0.00;0.62;4.63;4.23;;;17.20;24.30;;;;;;2253519;61;20368;-62
2021/01/17 06:13:31;0.00;0.00;0.62;0.00;0.00;0.62;3.80;3.40;;;17.20;24.40;;;;;;2253483;61;20753;-63
2021/01/17 06:16:25;0.00;0.00;0.62;0.00;0.00;0.62;4.87;4.10;;;17.20;24.40;;;;;;2253642;61;20747;-62
2021/01/17 06:19:12;0.00;0.00;0.62;0.00;0.00;0.62;4.80;4.17;;;17.20;24.40;;;;;;2252920;61;20364;-61
2021/01/17 06:22:02;0.00;0.00;0.62;0.00;0.00;0.62;4.10;3.50;;;17.20;24.40;;;;;;2253419;61;20840;-62
2021/01/17 06:24:50;0.00;0.00;0.62;0.00;0.00;0.62;4.20;3.80;;;17.20;24.40;;;;;;2253474;61;20368;-62
2021/01/17 06:27:36;0.00;0.00;0.62;0.00;0.00;0.62;4.87;4.37;;;17.20;24.40;;;;;;2252515;61;20439;-62
2021/01/17 06:30:28;0.00;0.00;0.62;0.00;0.00;0.62;4.00;3.60;;;17.10;24.30;;;;;;2253596;61;20368;-62
2021/01/17 06:33:21;0.00;0.00;0.62;0.00;0.00;0.62;4.80;4.30;;;17.10;24.30;;;;;;2253269;61;20436;-62
2021/01/17 06:36:12;0.00;0.00;0.62;0.00;0.00;0.62;5.23;4.73;;;17.10;24.30;;;;;;2253391;61;20439;-61
2021/01/17 06:38:58;0.00;0.00;0.62;0.00;0.00;0.62;5.53;5.03;;;17.10;24.40;;;;;;2253491;61;20772;-62
2021/01/17 06:41:44;0.00;0.00;0.62;0.00;0.00;0.62;6.07;4.00;;;17.10;24.30;;;;;;2252928;61;20395;-61
2021/01/17 06:44:31;0.00;0.00;0.62;0.00;0.00;0.62;4.50;4.10;;;17.10;24.20;;;;;;2253678;61;20364;-62
2021/01/17 06:47:21;0.00;0.00;0.62;0.00;0.00;0.62;5.60;5.00;;;17.10;24.20;;;;;;2253531;61;20396;-62
2021/01/17 06:50:07;0.00;0.00;0.62;0.00;0.00;0.62;5.20;4.70;;;17.00;24.20;;;;;;2252538;61;20365;-62
2021/01/17 06:52:54;0.00;0.00;0.62;0.00;0.00;0.62;4.83;4.33;;;17.00;24.10;;;;;;2253267;61;20585;-64
2021/01/17 06:55:40;0.00;0.00;0.62;0.00;0.00;0.62;5.33;4.27;;;17.00;24.10;;;;;;2252861;61;20452;-64
2021/01/17 06:58:27;0.00;0.00;0.62;0.00;0.00;0.62;5.07;4.40;;;17.00;24.60;;;;;;2252927;61;20368;-63
2021/01/17 07:01:14;0.00;0.00;0.62;0.00;0.00;0.62;5.13;4.63;;;17.00;24.00;;;;;;2253478;61;20579;-64
2021/01/17 07:04:26;0.00;0.00;0.62;0.00;0.00;0.62;5.73;4.40;;;17.00;23.90;;;;;;2252484;61;20356;-62
2021/01/17 07:07:41;0.00;0.00;0.62;0.00;0.00;0.62;5.37;4.87;;;17.00;23.90;;;;;;2253423;61;20399;-61
2021/01/17 07:10:31;0.00;0.00;0.62;0.00;0.00;0.62;4.87;4.37;;;16.90;23.90;;;;;;2252505;61;20453;-64
2021/01/17 07:13:21;0.00;0.00;0.62;0.00;0.00;0.62;5.63;5.13;;;16.90;23.90;;;;;;2254094;61;20356;-64
2021/01/17 07:16:11;0.00;0.00;0.62;0.00;0.00;0.62;6.10;5.10;;;16.90;23.90;;;;;;2254151;61;20622;-62
2021/01/17 07:19:02;0.00;0.00;0.62;0.00;0.00;0.62;5.17;4.67;;;16.90;23.90;;;;;;2253656;61;20376;-62
2021/01/17 07:21:50;0.00;0.00;0.62;0.00;0.00;0.62;6.20;4.97;;;16.80;23.90;;;;;;2254389;61;20413;-62
2021/01/17 07:24:38;0.00;0.00;0.62;0.00;0.00;0.62;5.80;4.93;;;16.80;23.90;;;;;;2254258;61;20818;-62
2021/01/17 07:28:04;0.00;0.00;0.62;0.00;0.00;0.62;6.97;5.63;;;16.80;23.90;;;;;;2253921;61;20772;-63
2021/01/17 07:30:57;0.00;0.00;0.62;0.00;0.00;0.62;5.07;4.57;;;16.80;23.90;;;;;;2253892;61;20368;-62
2021/01/17 07:33:46;0.00;0.00;0.62;0.00;0.00;0.62;5.40;4.90;;;16.70;23.80;;;;;;2253503;61;20685;-62
2021/01/17 07:36:37;0.00;0.00;0.62;0.00;0.00;0.62;5.80;5.20;;;16.80;23.90;;;;;;2254144;61;20677;-64
2021/01/17 07:39:24;0.00;0.00;0.62;0.00;0.00;0.62;5.83;5.03;;;16.70;23.90;;;;;;2254195;61;20590;-61
2021/01/17 07:42:32;0.00;0.00;0.62;0.00;0.00;0.62;5.07;4.60;;;16.70;23.90;;;;;;2253813;61;20364;-62
2021/01/17 07:45:19;0.00;0.00;0.62;0.00;0.00;0.62;6.20;5.60;;;16.70;23.90;;;;;;2253446;61;20387;-62
2021/01/17 07:48:07;0.00;0.00;0.62;0.00;0.00;0.62;5.60;5.10;;;16.70;23.90;;;;;;2253581;61;20500;-62
2021/01/17 07:50:55;0.00;0.00;0.62;0.00;0.00;0.62;6.00;5.30;;;16.70;23.90;;;;;;2253785;61;20766;-62
2021/01/17 07:53:51;0.00;0.00;0.62;0.00;0.00;0.62;5.20;4.70;;;16.70;23.90;;;;;;2254069;61;20402;-62
2021/01/17 07:56:37;0.00;0.00;0.62;0.00;0.00;0.62;6.60;5.90;;;16.70;24.00;;;;;;2253243;61;20649;-62
2021/01/17 07:59:27;0.00;0.00;0.62;0.00;0.00;0.62;6.37;5.77;;;16.60;23.90;;;;;;2253623;61;20404;-62
2021/01/17 08:02:24;0.00;0.00;0.62;0.00;0.00;0.62;5.43;4.93;;;16.60;23.90;;;;;;2253413;61;20491;-63
2021/01/17 08:05:12;0.00;0.00;0.62;0.00;0.00;0.62;6.40;5.50;;;16.60;23.90;;;;;;2253346;61;20628;-65
2021/01/17 08:07:57;0.00;0.00;0.62;0.00;0.00;0.62;5.80;5.30;;;16.60;23.90;;;;;;2255837;61;20366;-65
2021/01/17 08:10:43;0.00;0.00;0.62;0.00;0.00;0.62;5.90;5.30;;;16.60;24.00;;;;;;2253574;61;20452;-65
2021/01/17 08:13:32;0.00;0.00;0.62;0.00;0.00;0.62;5.83;4.70;;;16.70;24.10;;;;;;2253316;61;20651;-65
2021/01/17 08:16:17;0.00;0.00;0.62;0.00;0.00;0.62;4.90;4.40;;;16.70;24.20;;;;;;2254210;61;20392;-64
2021/01/17 08:19:02;0.00;0.00;0.62;0.00;0.00;0.62;4.77;4.00;;;16.70;24.30;;;;;;2253333;61;20353;-65
2021/01/17 08:21:48;0.00;0.00;0.62;0.00;0.00;0.62;4.43;4.03;;;16.70;24.30;;;;;;2253833;61;20433;-65
2021/01/17 08:24:38;0.00;0.00;0.62;0.00;0.00;0.62;4.20;3.80;;;16.80;24.40;;;;;;2253133;61;20368;-65
2021/01/17 08:27:32;0.00;0.00;0.62;0.00;0.00;0.62;3.73;3.27;;;16.80;24.40;;;;;;2253712;61;20461;-64
2021/01/17 08:30:23;0.00;0.00;0.62;0.00;0.00;0.62;4.17;3.67;;;16.80;24.40;;;;;;2253850;61;20356;-63
2021/01/17 08:33:11;0.00;0.00;0.62;0.00;0.00;0.62;4.30;3.90;;;16.80;24.40;;;;;;2255542;61;20709;-64
2021/01/17 08:35:57;0.00;0.00;0.62;0.00;0.00;0.62;4.27;3.43;;;16.80;24.40;;;;;;2253855;61;20752;-66
2021/01/17 08:38:43;0.00;0.00;0.62;0.00;0.00;0.62;3.27;2.90;;;16.80;24.40;;;;;;2253810;61;20468;-63
2021/01/17 08:41:29;0.00;0.00;0.62;0.00;0.00;0.62;3.80;3.50;;;16.80;24.40;;;;;;2253006;61;20384;-63
2021/01/17 08:44:15;0.00;0.00;0.62;0.00;0.00;0.62;3.83;3.43;;;16.80;24.40;;;;;;2253698;61;20740;-65
2021/01/17 08:47:19;0.00;0.00;0.62;0.00;0.00;0.62;3.30;2.73;;;16.90;24.50;;;;;;2253230;61;20435;-65
2021/01/17 08:50:06;0.00;0.00;0.62;0.00;0.00;0.62;3.17;2.50;;;16.90;24.60;;;;;;2253656;61;20588;-65
2021/01/17 08:52:52;0.00;0.00;0.62;0.00;0.00;0.62;3.13;2.80;;;16.90;24.60;;;;;;2253777;61;20363;-65
2021/01/17 08:55:40;0.00;0.00;0.62;0.00;0.00;0.62;2.83;2.47;;;17.00;24.70;;;;;;2252981;61;20380;-65
2021/01/17 08:58:44;0.00;0.00;0.62;0.00;0.00;0.62;4.03;2.97;;;17.00;24.80;;;;;;2253735;61;20784;-66
2021/01/17 09:01:28;0.00;0.00;0.62;0.00;0.00;0.62;2.80;2.50;;;17.00;24.80;;;;;;2252890;61;20403;-62
2021/01/17 09:04:23;0.00;0.00;0.62;0.00;0.00;0.62;3.17;2.50;;;17.00;24.80;;;;;;2252641;61;20604;-61
2021/01/17 09:07:29;0.00;0.00;0.62;0.00;0.00;0.62;3.87;2.67;;;17.00;24.80;;;;;;2253164;61;20608;-64
2021/01/17 09:10:16;0.00;0.00;0.62;0.00;0.00;0.62;2.50;2.30;;;17.10;25.40;;;;;;2253583;61;20391;-62
2021/01/17 09:13:02;0.00;0.00;0.62;0.00;0.00;0.62;2.97;2.60;;;17.10;25.00;;;;;;2253188;61;20355;-64
2021/01/17 09:16:00;0.00;0.00;0.62;0.00;0.00;0.62;2.83;2.53;;;17.10;25.00;;;;;;2252056;61;20388;-62
2021/01/17 09:18:45;0.00;0.00;0.62;0.00;0.00;0.62;2.70;2.10;;;17.20;25.00;;;;;;2253513;61;20377;-62
2021/01/17 09:21:30;0.00;0.00;0.62;0.00;0.00;0.62;3.30;2.80;;;17.20;25.00;;;;;;2253093;61;20365;-62
2021/01/17 09:24:18;0.00;0.00;0.62;0.00;0.00;0.62;2.30;1.93;;;17.20;25.00;;;;;;2253031;61;20433;-61
2021/01/17 09:27:05;0.00;0.00;0.62;0.00;0.00;0.62;2.90;2.60;;;17.20;25.00;;;;;;2254004;61;20392;-62
2021/01/17 09:29:53;0.00;0.00;0.62;0.00;0.00;0.62;2.83;2.53;;;17.20;25.00;;;;;;2253443;61;20361;-65
2021/01/17 09:32:40;0.00;0.00;0.62;0.00;0.00;0.62;3.40;2.70;;;17.30;25.00;;;;;;2253320;61;20476;-61
2021/01/17 09:35:25;0.00;0.00;0.62;0.00;0.00;0.62;2.43;2.23;;;17.30;25.00;;;;;;2253616;61;20376;-61
2021/01/17 09:38:13;0.00;0.00;0.62;0.00;0.00;0.62;2.67;2.40;;;17.30;25.00;;;;;;2252624;61;20541;-61
2021/01/17 09:40:58;0.00;0.00;0.62;0.00;0.00;0.62;3.60;3.00;;;17.30;25.00;;;;;;2253846;61;20360;-61
2021/01/17 09:43:44;0.00;0.00;0.62;0.00;0.00;0.62;2.60;2.13;;;17.30;25.10;;;;;;2253542;61;20576;-62
2021/01/17 09:46:34;0.00;0.00;0.62;0.00;0.00;0.62;4.17;2.80;;;17.30;25.10;;;;;;2253067;61;20416;-63
2021/01/17 09:49:28;0.00;0.00;0.62;0.00;0.00;0.62;2.87;2.43;;;17.40;25.20;;;;;;2253657;61;20516;-62
2021/01/17 09:52:15;0.00;0.00;0.62;0.00;0.00;0.62;2.77;2.23;;;17.40;25.20;;;;;;2253499;61;20381;-60
2021/01/17 09:55:00;0.00;0.00;0.62;0.00;0.00;0.62;2.40;2.20;;;17.40;25.20;;;;;;2255044;61;20392;-63
2021/01/17 09:57:45;0.00;0.00;0.62;0.00;0.00;0.62;2.33;2.13;;;17.40;25.20;;;;;;2253594;61;20569;-59
2021/01/17 10:00:29;0.00;0.00;0.62;0.00;0.00;0.62;2.50;2.30;;;17.40;25.20;;;;;;2253170;61;20360;-62
2021/01/17 10:03:16;0.00;0.00;0.62;0.00;0.00;0.62;3.00;2.17;;;17.40;25.10;;;;;;2254051;61;20388;-63
2021/01/17 10:06:00;0.00;0.00;0.62;0.00;0.00;0.62;2.47;2.03;;;17.40;25.20;;;;;;2253137;61;20391;-62
2021/01/17 10:08:46;0.00;0.00;0.62;0.00;0.00;0.62;3.00;2.30;;;17.40;25.20;;;;;;2253324;61;20380;-64
2021/01/17 10:11:32;0.00;0.00;0.62;0.00;0.00;0.62;2.23;1.90;;;17.50;25.30;;;;;;2253984;61;20594;-61
2021/01/17 10:14:21;0.00;0.00;0.62;0.00;0.00;0.62;3.67;2.33;;;17.50;25.30;;;;;;2253672;61;20356;-62
2021/01/17 10:17:07;0.00;0.00;0.62;0.00;0.00;0.62;2.27;2.07;;;17.50;25.20;;;;;;2255687;61;20415;-65
2021/01/17 10:19:53;0.00;0.00;0.62;0.00;0.00;0.62;2.40;1.87;;;17.50;25.20;;;;;;2253446;61;20357;-62
2021/01/17 10:22:38;0.00;0.00;0.62;0.00;0.00;0.62;2.63;2.37;;;17.50;25.20;;;;;;2253256;61;20372;-65
2021/01/17 10:25:24;0.00;0.00;0.62;0.00;0.00;0.62;2.97;2.00;;;17.50;25.20;;;;;;2253721;61;20427;-63
2021/01/17 10:28:11;0.00;0.00;0.62;0.00;0.00;0.62;2.87;2.57;;;17.50;25.20;;;;;;2255531;61;20472;-64
2021/01/17 10:31:00;0.00;0.00;0.62;0.00;0.00;0.62;2.30;2.10;;;17.50;25.30;;;;;;2253133;61;20723;-62
2021/01/17 10:33:46;0.00;0.00;0.62;0.00;0.00;0.62;2.23;1.97;;;17.60;25.40;;;;;;2253800;61;20476;-62
2021/01/17 10:36:33;0.00;0.00;0.62;0.00;0.00;0.62;2.40;2.10;;;17.60;25.40;;;;;;2253695;61;20379;-61
2021/01/17 10:39:20;0.00;0.00;0.62;0.00;0.00;0.62;2.17;1.77;;;17.60;25.40;;;;;;2253300;61;20376;-64
2021/01/17 10:42:09;0.00;0.00;0.62;0.00;0.00;0.62;2.10;1.90;;;17.60;25.50;;;;;;2253575;61;20775;-61
2021/01/17 10:44:59;0.00;0.00;0.62;0.00;0.00;0.62;2.30;2.07;;;17.60;25.40;;;;;;2253187;61;20725;-66
2021/01/17 10:47:50;0.00;0.00;0.62;0.00;0.00;0.62;2.57;1.70;;;17.60;25.40;;;;;;2253398;61;20384;-60
2021/01/17 10:50:43;0.00;0.00;0.62;0.00;0.00;0.62;2.60;2.00;;;17.70;25.50;;;;;;2253570;61;20364;-63
2021/01/17 10:53:45;0.00;0.00;0.62;0.00;0.00;0.62;2.63;2.00;;;17.70;25.50;;;;;;2253204;61;20400;-61
2021/01/17 10:56:33;0.00;0.00;0.62;0.00;0.00;0.62;2.40;2.00;;;17.70;26.10;;;;;;2253635;61;20423;-61
2021/01/17 10:59:23;0.00;0.00;0.62;0.00;0.00;0.62;2.00;1.80;;;17.70;25.50;;;;;;2253798;61;20360;-60
2021/01/17 11:02:20;0.00;0.00;0.62;0.00;0.00;0.62;3.13;2.10;;;17.70;25.50;;;;;;2253650;61;20357;-60
2021/01/17 11:05:07;0.00;0.00;0.62;0.00;0.00;0.62;3.33;1.73;;;17.70;25.50;;;;;;2253554;61;20392;-62